sensor_id;sensor_type;location;lat;lon;timestamp;pressure;altitude;pressure_sealevel;temperature;humidity
22104;BME280;11218;48.886;9.426;2023-02-11T00:01:18;100079.94;;;-1.59;79.46
22104;BME280;11218;48.886;9.426;2023-02-11T00:03:46;100072.00;;;-1.59;79.05
22104;BME280;11218;48.886;9.426;2023-02-11T00:06:15;100078.25;;;-1.60;78.83
22104;BME280;11218;48.886;9.426;2023-02-11T00:08:43;100076.69;;;-1.62;79.17
22104;BME280;11218;48.886;9.426;2023-02-11T00:11:12;100063.97;;;-1.69;79.50
22104;BME280;11218;48.886;9.426;2023-02-11T00:13:44;100068.16;;;-1.66;79.74
22104;BME280;11218;48.886;9.426;2023-02-11T00:16:14;100068.16;;;-1.66;79.36
22104;BME280;11218;48.886;9.426;2023-02-11T00:18:43;100070.81;;;-1.66;79.29
22104;BME280;11218;48.886;9.426;2023-02-11T00:21:14;100069.97;;;-1.67;79.80
22104;BME280;11218;48.886;9.426;2023-02-11T00:23:43;100061.22;;;-1.67;79.23
22104;BME280;11218;48.886;9.426;2023-02-11T00:26:12;100060.25;;;-1.66;79.75
22104;BME280;11218;48.886;9.426;2023-02-11T00:28:40;100062.78;;;-1.64;79.97
22104;BME280;11218;48.886;9.426;2023-02-11T00:31:11;100058.44;;;-1.66;79.72
22104;BME280;11218;48.886;9.426;2023-02-11T00:33:41;100068.06;;;-1.64;79.09
22104;BME280;11218;48.886;9.426;2023-02-11T00:36:12;100067.94;;;-1.63;79.09
22104;BME280;11218;48.886;9.426;2023-02-11T00:38:41;100052.22;;;-1.64;79.85
22104;BME280;11218;48.886;9.426;2023-02-11T00:41:10;100058.44;;;-1.66;79.62
22104;BME280;11218;48.886;9.426;2023-02-11T00:43:38;100057.63;;;-1.66;79.42
22104;BME280;11218;48.886;9.426;2023-02-11T00:46:08;100058.56;;;-1.67;79.46
22104;BME280;11218;48.886;9.426;2023-02-11T00:48:38;100063.00;;;-1.68;79.29
22104;BME280;11218;48.886;9.426;2023-02-11T00:51:06;100059.66;;;-1.70;79.44
22104;BME280;11218;48.886;9.426;2023-02-11T00:53:35;100062.28;;;-1.70;79.45
22104;BME280;11218;48.886;9.426;2023-02-11T00:56:03;100054.75;;;-1.74;79.56
22104;BME280;11218;48.886;9.426;2023-02-11T00:58:32;100049.47;;;-1.74;79.57
22104;BME280;11218;48.886;9.426;2023-02-11T01:01:00;100037.22;;;-1.75;79.31
22104;BME280;11218;48.886;9.426;2023-02-11T01:03:28;100040.72;;;-1.75;79.70
22104;BME280;11218;48.886;9.426;2023-02-11T01:05:58;100030.50;;;-1.79;79.13
22104;BME280;11218;48.886;9.426;2023-02-11T01:08:27;100034.94;;;-1.80;79.60
22104;BME280;11218;48.886;9.426;2023-02-11T01:10:56;100021.53;;;-1.88;79.45
22104;BME280;11218;48.886;9.426;2023-02-11T01:13:24;100018.03;;;-1.88;79.95
22104;BME280;11218;48.886;9.426;2023-02-11T01:15:53;100010.84;;;-1.86;80.27
22104;BME280;11218;48.886;9.426;2023-02-11T01:18:22;100014.44;;;-1.87;79.84
22104;BME280;11218;48.886;9.426;2023-02-11T01:20:50;100020.56;;;-1.87;79.94
22104;BME280;11218;48.886;9.426;2023-02-11T01:23:24;100005.69;;;-1.88;79.97
22104;BME280;11218;48.886;9.426;2023-02-11T01:25:52;100005.56;;;-1.86;80.49
22104;BME280;11218;48.886;9.426;2023-02-11T01:28:23;100008.34;;;-1.88;80.01
22104;BME280;11218;48.886;9.426;2023-02-11T01:30:52;100008.22;;;-1.86;80.29
22104;BME280;11218;48.886;9.426;2023-02-11T01:33:21;100008.34;;;-1.88;80.10
22104;BME280;11218;48.886;9.426;2023-02-11T01:35:50;100005.69;;;-1.88;80.40
22104;BME280;11218;48.886;9.426;2023-02-11T01:38:21;100003.31;;;-1.91;80.15
22104;BME280;11218;48.886;9.426;2023-02-11T01:40:52;100013.84;;;-1.91;79.79
22104;BME280;11218;48.886;9.426;2023-02-11T01:43:21;100006.41;;;-1.86;79.90
22104;BME280;11218;48.886;9.426;2023-02-11T01:46:01;100012.88;;;-1.90;79.83
22104;BME280;11218;48.886;9.426;2023-02-11T01:48:33;100021.66;;;-1.89;79.54
22104;BME280;11218;48.886;9.426;2023-02-11T01:51:06;100023.56;;;-1.91;79.97
22104;BME280;11218;48.886;9.426;2023-02-11T01:53:37;100019.25;;;-1.92;80.16
22104;BME280;11218;48.886;9.426;2023-02-11T01:56:24;100007.97;;;-1.94;79.73
22104;BME280;11218;48.886;9.426;2023-02-11T01:59:15;100009.06;;;-1.97;79.48
22104;BME280;11218;48.886;9.426;2023-02-11T02:01:47;100014.56;;;-2.00;79.55
22104;BME280;11218;48.886;9.426;2023-02-11T02:04:18;100009.53;;;-2.03;80.78
22104;BME280;11218;48.886;9.426;2023-02-11T02:06:50;100006.19;;;-2.05;80.75
22104;BME280;11218;48.886;9.426;2023-02-11T02:09:24;100001.63;;;-2.03;81.22
22104;BME280;11218;48.886;9.426;2023-02-11T02:11:54;99993.59;;;-2.02;80.92
22104;BME280;11218;48.886;9.426;2023-02-11T02:14:23;99994.91;;;-1.96;81.33
22104;BME280;11218;48.886;9.426;2023-02-11T02:16:52;99998.25;;;-1.94;80.40
22104;BME280;11218;48.886;9.426;2023-02-11T02:19:39;100000.78;;;-1.92;80.37
22104;BME280;11218;48.886;9.426;2023-02-11T02:22:39;99992.75;;;-1.91;80.95
22104;BME280;11218;48.886;9.426;2023-02-11T02:25:32;99989.63;;;-1.85;81.47
22104;BME280;11218;48.886;9.426;2023-02-11T02:28:14;99993.69;;;-1.81;81.10
22104;BME280;11218;48.886;9.426;2023-02-11T02:31:06;99989.84;;;-1.77;81.28
22104;BME280;11218;48.886;9.426;2023-02-11T02:33:44;99975.44;;;-1.73;81.27
22104;BME280;11218;48.886;9.426;2023-02-11T02:36:21;99960.69;;;-1.75;81.25
22104;BME280;11218;48.886;9.426;2023-02-11T02:38:53;99953.97;;;-1.68;81.59
22104;BME280;11218;48.886;9.426;2023-02-11T02:41:27;99956.47;;;-1.67;81.40
22104;BME280;11218;48.886;9.426;2023-02-11T02:43:56;99946.75;;;-1.66;80.66
22104;BME280;11218;48.886;9.426;2023-02-11T02:46:27;99937.88;;;-1.65;81.31
22104;BME280;11218;48.886;9.426;2023-02-11T02:48:58;99939.81;;;-1.67;81.26
22104;BME280;11218;48.886;9.426;2023-02-11T02:54:43;99939.19;;;-1.59;81.49
22104;BME280;11218;48.886;9.426;2023-02-11T02:57:29;99936.41;;;-1.58;81.56
22104;BME280;11218;48.886;9.426;2023-02-11T03:00:07;99932.44;;;-1.52;81.46
22104;BME280;11218;48.886;9.426;2023-02-11T03:02:49;99938.31;;;-1.49;81.36
22104;BME280;11218;48.886;9.426;2023-02-11T03:05:29;99928.28;;;-1.45;81.48
22104;BME280;11218;48.886;9.426;2023-02-11T03:08:02;99936.81;;;-1.42;81.57
22104;BME280;11218;48.886;9.426;2023-02-11T03:10:36;99922.75;;;-1.42;81.87
22104;BME280;11218;48.886;9.426;2023-02-11T03:13:06;99920.97;;;-1.42;80.93
22104;BME280;11218;48.886;9.426;2023-02-11T03:15:37;99918.91;;;-1.38;81.51
22104;BME280;11218;48.886;9.426;2023-02-11T03:18:13;99917.69;;;-1.34;81.86
22104;BME280;11218;48.886;9.426;2023-02-11T03:20:46;99919.22;;;-1.32;82.01
22104;BME280;11218;48.886;9.426;2023-02-11T03:23:20;99920.97;;;-1.21;80.41
22104;BME280;11218;48.886;9.426;2023-02-11T03:25:53;99918.59;;;-1.24;80.92
22104;BME280;11218;48.886;9.426;2023-02-11T03:28:28;99917.50;;;-1.21;80.75
22104;BME280;11218;48.886;9.426;2023-02-11T03:31:07;99919.81;;;-1.28;80.88
22104;BME280;11218;48.886;9.426;2023-02-11T03:33:40;99911.91;;;-1.28;81.62
22104;BME280;11218;48.886;9.426;2023-02-11T03:36:14;99923.63;;;-1.21;81.96
22104;BME280;11218;48.886;9.426;2023-02-11T03:38:48;99920.16;;;-1.21;81.49
22104;BME280;11218;48.886;9.426;2023-02-11T03:41:20;99927.94;;;-1.20;81.55
22104;BME280;11218;48.886;9.426;2023-02-11T03:43:52;99924.34;;;-1.19;81.62
22104;BME280;11218;48.886;9.426;2023-02-11T03:46:22;99926.59;;;-1.14;81.80
22104;BME280;11218;48.886;9.426;2023-02-11T03:48:54;99923.94;;;-1.14;82.17
22104;BME280;11218;48.886;9.426;2023-02-11T03:51:26;99931.50;;;-1.10;82.18
22104;BME280;11218;48.886;9.426;2023-02-11T03:53:58;99933.75;;;-1.05;81.51
22104;BME280;11218;48.886;9.426;2023-02-11T03:56:31;99934.84;;;-1.08;80.73
22104;BME280;11218;48.886;9.426;2023-02-11T03:59:00;99938.72;;;-1.12;81.72
22104;BME280;11218;48.886;9.426;2023-02-11T04:01:28;99940.19;;;-1.19;81.96
22104;BME280;11218;48.886;9.426;2023-02-11T04:03:56;99943.16;;;-1.12;81.98
22104;BME280;11218;48.886;9.426;2023-02-11T04:06:26;99942.44;;;-1.14;82.01
22104;BME280;11218;48.886;9.426;2023-02-11T04:08:54;99939.09;;;-1.16;82.04
22104;BME280;11218;48.886;9.426;2023-02-11T04:11:22;99935.47;;;-1.15;82.60
22104;BME280;11218;48.886;9.426;2023-02-11T04:13:50;99944.25;;;-1.15;82.30
22104;BME280;11218;48.886;9.426;2023-02-11T04:16:19;99930.06;;;-1.14;82.40
22104;BME280;11218;48.886;9.426;2023-02-11T04:18:47;99940.50;;;-1.12;82.35
22104;BME280;11218;48.886;9.426;2023-02-11T04:21:15;99946.50;;;-1.10;82.38
22104;BME280;11218;48.886;9.426;2023-02-11T04:23:44;99938.72;;;-1.12;82.32
22104;BME280;11218;48.886;9.426;2023-02-11T04:26:13;99941.94;;;-1.08;82.83
22104;BME280;11218;48.886;9.426;2023-02-11T04:28:41;99939.16;;;-1.07;82.61
22104;BME280;11218;48.886;9.426;2023-02-11T04:31:09;99945.88;;;-1.03;82.20
22104;BME280;11218;48.886;9.426;2023-02-11T04:33:38;99939.88;;;-1.05;82.64
22104;BME280;11218;48.886;9.426;2023-02-11T04:36:07;99936.84;;;-1.00;82.23
22104;BME280;11218;48.886;9.426;2023-02-11T04:38:35;99939.09;;;-0.95;82.47
22104;BME280;11218;48.886;9.426;2023-02-11T04:41:05;99936.31;;;-0.94;82.10
22104;BME280;11218;48.886;9.426;2023-02-11T04:43:33;99936.78;;;-0.89;82.99
22104;BME280;11218;48.886;9.426;2023-02-11T04:46:01;99935.56;;;-0.85;82.76
22104;BME280;11218;48.886;9.426;2023-02-11T04:48:29;99933.50;;;-0.81;82.82
22104;BME280;11218;48.886;9.426;2023-02-11T04:50:57;99924.34;;;-0.77;82.15
22104;BME280;11218;48.886;9.426;2023-02-11T04:53:25;99924.88;;;-0.74;82.18
22104;BME280;11218;48.886;9.426;2023-02-11T04:55:54;99931.19;;;-0.65;82.31
22104;BME280;11218;48.886;9.426;2023-02-11T04:58:23;99933.31;;;-0.59;81.17
22104;BME280;11218;48.886;9.426;2023-02-11T05:00:51;99931.94;;;-0.53;81.04
22104;BME280;11218;48.886;9.426;2023-02-11T05:03:20;99909.69;;;-0.51;81.59
22104;BME280;11218;48.886;9.426;2023-02-11T05:05:48;99906.19;;;-0.51;81.61
22104;BME280;11218;48.886;9.426;2023-02-11T05:08:17;99913.59;;;-0.45;81.16
22104;BME280;11218;48.886;9.426;2023-02-11T05:10:47;99904.44;;;-0.41;81.23
22104;BME280;11218;48.886;9.426;2023-02-11T05:13:15;99901.53;;;-0.38;80.79
22104;BME280;11218;48.886;9.426;2023-02-11T05:15:44;99890.69;;;-0.35;80.90
22104;BME280;11218;48.886;9.426;2023-02-11T05:18:12;99887.50;;;-0.29;80.97
22104;BME280;11218;48.886;9.426;2023-02-11T05:20:41;99889.88;;;-0.26;80.25
22104;BME280;11218;48.886;9.426;2023-02-11T05:23:09;99888.38;;;-0.19;79.91
22104;BME280;11218;48.886;9.426;2023-02-11T05:25:37;99876.13;;;-0.10;79.84
22104;BME280;11218;48.886;9.426;2023-02-11T05:28:05;99871.41;;;-0.07;80.27
22104;BME280;11218;48.886;9.426;2023-02-11T05:30:34;99868.75;;;-0.07;80.55
22104;BME280;11218;48.886;9.426;2023-02-11T05:33:03;99869.44;;;0.15;79.53
22104;BME280;11218;48.886;9.426;2023-02-11T05:35:31;99876.69;;;0.03;80.37
22104;BME280;11218;48.886;9.426;2023-02-11T05:38:00;99881.13;;;0.03;79.71
22104;BME280;11218;48.886;9.426;2023-02-11T05:40:28;99876.69;;;0.03;80.90
22104;BME280;11218;48.886;9.426;2023-02-11T05:42:56;99882.81;;;0.04;80.85
22104;BME280;11218;48.886;9.426;2023-02-11T05:45:25;99870.00;;;0.09;80.64
22104;BME280;11218;48.886;9.426;2023-02-11T05:47:53;99864.84;;;0.07;80.30
22104;BME280;11218;48.886;9.426;2023-02-11T05:50:23;99866.53;;;0.08;79.98
22104;BME280;11218;48.886;9.426;2023-02-11T05:52:52;99870.44;;;0.14;80.10
22104;BME280;11218;48.886;9.426;2023-02-11T05:55:21;99869.03;;;0.10;79.90
22104;BME280;11218;48.886;9.426;2023-02-11T05:57:49;99864.72;;;0.09;79.37
22104;BME280;11218;48.886;9.426;2023-02-11T06:00:18;99882.56;;;0.16;79.92
22104;BME280;11218;48.886;9.426;2023-02-11T06:02:46;99881.59;;;0.17;79.44
22104;BME280;11218;48.886;9.426;2023-02-11T06:05:15;99896.50;;;0.18;79.43
22104;BME280;11218;48.886;9.426;2023-02-11T06:07:45;99888.69;;;0.17;79.83
22104;BME280;11218;48.886;9.426;2023-02-11T06:10:13;99898.44;;;0.16;79.96
22104;BME280;11218;48.886;9.426;2023-02-11T06:12:42;99905.69;;;0.14;79.74
22104;BME280;11218;48.886;9.426;2023-02-11T06:15:10;99902.34;;;0.12;80.22
22104;BME280;11218;48.886;9.426;2023-02-11T06:17:38;99901.19;;;0.05;81.44
22104;BME280;11218;48.886;9.426;2023-02-11T06:20:08;99895.66;;;-0.02;82.04
22104;BME280;11218;48.886;9.426;2023-02-11T06:22:37;99902.06;;;-0.04;81.50
22104;BME280;11218;48.886;9.426;2023-02-11T06:25:08;99900.66;;;-0.08;81.83
22104;BME280;11218;48.886;9.426;2023-02-11T06:27:37;99898.13;;;-0.10;81.68
22104;BME280;11218;48.886;9.426;2023-02-11T06:30:07;99894.78;;;-0.12;81.77
22104;BME280;11218;48.886;9.426;2023-02-11T06:32:35;99895.19;;;-0.16;81.14
22104;BME280;11218;48.886;9.426;2023-02-11T06:35:12;99889.91;;;-0.16;82.10
22104;BME280;11218;48.886;9.426;2023-02-11T06:37:41;99897.56;;;-0.13;82.28
22104;BME280;11218;48.886;9.426;2023-02-11T06:40:11;99889.38;;;-0.10;80.63
22104;BME280;11218;48.886;9.426;2023-02-11T06:42:40;99895.63;;;-0.11;81.45
22104;BME280;11218;48.886;9.426;2023-02-11T06:45:08;99900.09;;;-0.12;82.06
22104;BME280;11218;48.886;9.426;2023-02-11T06:47:38;99897.28;;;-0.20;82.23
22104;BME280;11218;48.886;9.426;2023-02-11T06:50:08;99904.38;;;-0.20;82.83
22104;BME280;11218;48.886;9.426;2023-02-11T06:52:37;99906.03;;;-0.19;82.04
22104;BME280;11218;48.886;9.426;2023-02-11T06:55:06;99901.72;;;-0.20;82.94
22104;BME280;11218;48.886;9.426;2023-02-11T06:57:35;99904.94;;;-0.17;83.11
22104;BME280;11218;48.886;9.426;2023-02-11T07:00:04;99910.94;;;-0.15;82.37
22104;BME280;11218;48.886;9.426;2023-02-11T07:02:33;99909.13;;;-0.14;83.14
22104;BME280;11218;48.886;9.426;2023-02-11T07:05:01;99914.56;;;-0.06;82.78
22104;BME280;11218;48.886;9.426;2023-02-11T07:07:29;99905.41;;;-0.02;82.52
22104;BME280;11218;48.886;9.426;2023-02-11T07:10:00;99908.56;;;0.02;82.72
22104;BME280;11218;48.886;9.426;2023-02-11T07:12:28;99900.38;;;0.05;82.41
22104;BME280;11218;48.886;9.426;2023-02-11T07:14:58;99908.03;;;0.08;81.89
22104;BME280;11218;48.886;9.426;2023-02-11T07:17:26;99901.75;;;0.09;82.60
22104;BME280;11218;48.886;9.426;2023-02-11T07:19:54;99895.22;;;0.13;82.22
22104;BME280;11218;48.886;9.426;2023-02-11T07:22:22;99890.50;;;0.16;81.43
22104;BME280;11218;48.886;9.426;2023-02-11T07:24:50;99893.56;;;0.21;80.84
22104;BME280;11218;48.886;9.426;2023-02-11T07:27:18;99892.31;;;0.25;80.77
22104;BME280;11218;48.886;9.426;2023-02-11T07:29:47;99889.41;;;0.28;80.56
22104;BME280;11218;48.886;9.426;2023-02-11T07:32:17;99902.91;;;0.35;80.67
22104;BME280;11218;48.886;9.426;2023-02-11T07:34:45;99898.03;;;0.40;80.26
22104;BME280;11218;48.886;9.426;2023-02-11T07:37:14;99907.25;;;0.46;80.52
22104;BME280;11218;48.886;9.426;2023-02-11T07:39:42;99901.53;;;0.50;79.75
22104;BME280;11218;48.886;9.426;2023-02-11T07:42:10;99891.06;;;0.58;80.96
22104;BME280;11218;48.886;9.426;2023-02-11T07:44:38;99894.84;;;0.65;80.88
22104;BME280;11218;48.886;9.426;2023-02-11T07:47:06;99896.78;;;0.73;80.19
22104;BME280;11218;48.886;9.426;2023-02-11T07:49:36;99886.56;;;0.78;80.61
22104;BME280;11218;48.886;9.426;2023-02-11T07:52:04;99892.00;;;0.86;80.32
22104;BME280;11218;48.886;9.426;2023-02-11T07:54:32;99893.81;;;0.95;79.38
22104;BME280;11218;48.886;9.426;2023-02-11T07:57:00;99887.09;;;1.01;79.72
22104;BME280;11218;48.886;9.426;2023-02-11T07:59:29;99884.44;;;1.11;80.21
22104;BME280;11218;48.886;9.426;2023-02-11T08:01:57;99886.91;;;1.22;78.64
22104;BME280;11218;48.886;9.426;2023-02-11T08:04:26;99897.34;;;1.33;78.64
22104;BME280;11218;48.886;9.426;2023-02-11T08:06:55;99889.06;;;1.46;78.13
22104;BME280;11218;48.886;9.426;2023-02-11T08:09:24;99886.19;;;1.57;78.26
22104;BME280;11218;48.886;9.426;2023-02-11T08:11:52;99885.88;;;1.70;77.72
22104;BME280;11218;48.886;9.426;2023-02-11T08:14:21;99894.47;;;1.81;77.05
22104;BME280;11218;48.886;9.426;2023-02-11T08:16:50;99911.47;;;1.88;77.58
22104;BME280;11218;48.886;9.426;2023-02-11T08:19:19;99902.03;;;2.04;76.08
22104;BME280;11218;48.886;9.426;2023-02-11T08:21:48;99899.63;;;2.10;76.95
22104;BME280;11218;48.886;9.426;2023-02-11T08:24:18;99905.72;;;2.20;75.83
22104;BME280;11218;48.886;9.426;2023-02-11T08:26:46;99910.53;;;2.25;76.53
22104;BME280;11218;48.886;9.426;2023-02-11T08:29:15;99922.53;;;2.29;75.58
22104;BME280;11218;48.886;9.426;2023-02-11T08:31:45;99914.41;;;2.30;75.76
22104;BME280;11218;48.886;9.426;2023-02-11T08:34:14;99909.78;;;2.33;75.75
22104;BME280;11218;48.886;9.426;2023-02-11T08:36:45;99905.84;;;2.37;75.81
22104;BME280;11218;48.886;9.426;2023-02-11T08:39:15;99905.84;;;2.37;75.25
22104;BME280;11218;48.886;9.426;2023-02-11T08:41:49;99899.69;;;2.36;75.62
22104;BME280;11218;48.886;9.426;2023-02-11T08:44:18;99897.72;;;2.38;75.13
22104;BME280;11218;48.886;9.426;2023-02-11T08:46:47;99893.41;;;2.55;74.43
22104;BME280;11218;48.886;9.426;2023-02-11T08:49:16;99886.25;;;2.73;74.23
22104;BME280;11218;48.886;9.426;2023-02-11T08:51:45;99886.75;;;2.94;73.67
22104;BME280;11218;48.886;9.426;2023-02-11T08:54:14;99889.97;;;3.06;73.35
22104;BME280;11218;48.886;9.426;2023-02-11T08:56:42;99895.03;;;3.17;72.92
22104;BME280;11218;48.886;9.426;2023-02-11T08:59:13;99905.72;;;3.25;72.15
22104;BME280;11218;48.886;9.426;2023-02-11T09:01:43;99908.22;;;3.27;72.07
22104;BME280;11218;48.886;9.426;2023-02-11T09:04:13;99904.94;;;3.33;72.00
22104;BME280;11218;48.886;9.426;2023-02-11T09:06:41;99911.00;;;3.43;72.19
22104;BME280;11218;48.886;9.426;2023-02-11T09:09:11;99888.78;;;3.60;71.71
22104;BME280;11218;48.886;9.426;2023-02-11T09:11:40;99893.34;;;3.76;71.31
22104;BME280;11218;48.886;9.426;2023-02-11T09:14:16;99881.44;;;3.96;70.55
22104;BME280;11218;48.886;9.426;2023-02-11T09:16:46;99876.31;;;4.11;70.98
22104;BME280;11218;48.886;9.426;2023-02-11T09:19:15;99868.00;;;4.22;69.83
22104;BME280;11218;48.886;9.426;2023-02-11T09:21:44;99861.88;;;4.38;69.33
22104;BME280;11218;48.886;9.426;2023-02-11T09:24:14;99855.03;;;4.52;69.03
22104;BME280;11218;48.886;9.426;2023-02-11T09:26:42;99867.88;;;4.65;68.83
22104;BME280;11218;48.886;9.426;2023-02-11T09:29:10;99863.19;;;4.83;68.51
22104;BME280;11218;48.886;9.426;2023-02-11T09:31:41;99858.53;;;5.01;68.32
22104;BME280;11218;48.886;9.426;2023-02-11T09:34:10;99852.31;;;5.17;67.37
22104;BME280;11218;48.886;9.426;2023-02-11T09:36:39;99859.25;;;5.34;66.98
22104;BME280;11218;48.886;9.426;2023-02-11T09:39:11;99864.59;;;5.34;66.65
22104;BME280;11218;48.886;9.426;2023-02-11T09:41:57;99877.28;;;5.32;66.55
22104;BME280;11218;48.886;9.426;2023-02-11T09:44:31;99881.78;;;5.32;66.89
22104;BME280;11218;48.886;9.426;2023-02-11T09:47:03;99882.63;;;5.32;66.47
22104;BME280;11218;48.886;9.426;2023-02-11T09:49:35;99887.97;;;5.32;66.59
22104;BME280;11218;48.886;9.426;2023-02-11T09:52:14;99888.47;;;5.27;66.45
22104;BME280;11218;48.886;9.426;2023-02-11T09:54:53;99900.81;;;5.28;66.64
22104;BME280;11218;48.886;9.426;2023-02-11T09:57:23;99900.97;;;5.35;66.40
22104;BME280;11218;48.886;9.426;2023-02-11T09:59:55;99902.31;;;5.39;66.53
22104;BME280;11218;48.886;9.426;2023-02-11T10:02:30;99907.94;;;5.52;65.75
22104;BME280;11218;48.886;9.426;2023-02-11T10:05:15;99900.72;;;5.69;65.44
22104;BME280;11218;48.886;9.426;2023-02-11T10:07:55;99902.06;;;5.73;66.11
22104;BME280;11218;48.886;9.426;2023-02-11T10:10:38;99898.53;;;5.81;65.71
22104;BME280;11218;48.886;9.426;2023-02-11T10:13:24;99902.03;;;5.89;65.54
22104;BME280;11218;48.886;9.426;2023-02-11T10:16:04;99903.09;;;6.03;65.22
22104;BME280;11218;48.886;9.426;2023-02-11T10:19:12;99896.66;;;6.20;64.70
22104;BME280;11218;48.886;9.426;2023-02-11T10:21:52;99905.31;;;6.31;64.80
22104;BME280;11218;48.886;9.426;2023-02-11T10:24:27;99905.38;;;6.45;63.42
22104;BME280;11218;48.886;9.426;2023-02-11T10:26:55;99905.03;;;6.48;63.73
22104;BME280;11218;48.886;9.426;2023-02-11T10:29:32;99917.03;;;6.52;63.06
22104;BME280;11218;48.886;9.426;2023-02-11T10:32:05;99904.50;;;6.53;64.03
22104;BME280;11218;48.886;9.426;2023-02-11T10:34:40;99903.13;;;6.57;63.16
22104;BME280;11218;48.886;9.426;2023-02-11T10:37:09;99898.56;;;6.66;62.78
22104;BME280;11218;48.886;9.426;2023-02-11T10:39:40;99904.19;;;6.71;62.92
22104;BME280;11218;48.886;9.426;2023-02-11T10:42:10;99897.59;;;6.81;62.67
22104;BME280;11218;48.886;9.426;2023-02-11T10:44:42;99886.63;;;6.91;62.71
22104;BME280;11218;48.886;9.426;2023-02-11T10:47:18;99885.13;;;7.11;61.88
22104;BME280;11218;48.886;9.426;2023-02-11T10:49:49;99889.53;;;7.04;63.09
22104;BME280;11218;48.886;9.426;2023-02-11T10:52:20;99880.38;;;6.99;62.57
22104;BME280;11218;48.886;9.426;2023-02-11T10:54:57;99883.41;;;6.96;62.54
22104;BME280;11218;48.886;9.426;2023-02-11T10:57:29;99873.66;;;7.03;63.70
22104;BME280;11218;48.886;9.426;2023-02-11T11:00:00;99871.38;;;7.14;62.84
22104;BME280;11218;48.886;9.426;2023-02-11T11:02:30;99857.25;;;7.20;62.29
22104;BME280;11218;48.886;9.426;2023-02-11T11:05:03;99855.66;;;7.11;62.51
22104;BME280;11218;48.886;9.426;2023-02-11T11:07:34;99855.03;;;7.24;63.12
22104;BME280;11218;48.886;9.426;2023-02-11T11:10:06;99855.13;;;7.31;63.29
22104;BME280;11218;48.886;9.426;2023-02-11T11:12:51;99856.13;;;7.44;62.87
22104;BME280;11218;48.886;9.426;2023-02-11T11:15:21;99863.06;;;7.53;61.69
22104;BME280;11218;48.886;9.426;2023-02-11T11:17:52;99859.47;;;7.61;62.14
22104;BME280;11218;48.886;9.426;2023-02-11T11:20:56;99860.56;;;7.52;62.39
22104;BME280;11218;48.886;9.426;2023-02-11T11:23:26;99860.56;;;7.52;61.79
22104;BME280;11218;48.886;9.426;2023-02-11T11:26:03;99854.56;;;7.50;61.64
22104;BME280;11218;48.886;9.426;2023-02-11T11:28:37;99849.88;;;7.37;63.23
22104;BME280;11218;48.886;9.426;2023-02-11T11:31:12;99843.13;;;7.27;62.92
22104;BME280;11218;48.886;9.426;2023-02-11T11:33:42;99851.53;;;7.23;62.75
22104;BME280;11218;48.886;9.426;2023-02-11T11:36:16;99852.91;;;7.19;63.25
22104;BME280;11218;48.886;9.426;2023-02-11T11:38:50;99851.44;;;7.17;62.46
22104;BME280;11218;48.886;9.426;2023-02-11T11:41:23;99848.19;;;7.21;63.28
22104;BME280;11218;48.886;9.426;2023-02-11T11:43:56;99843.50;;;7.23;63.73
22104;BME280;11218;48.886;9.426;2023-02-11T11:46:28;99841.28;;;7.42;63.03
22104;BME280;11218;48.886;9.426;2023-02-11T11:49:13;99839.03;;;7.60;63.85
22104;BME280;11218;48.886;9.426;2023-02-11T11:51:52;99838.56;;;7.86;62.65
22104;BME280;11218;48.886;9.426;2023-02-11T11:54:24;99835.28;;;8.05;62.88
22104;BME280;11218;48.886;9.426;2023-02-11T11:56:58;99830.47;;;8.37;62.32
22104;BME280;11218;48.886;9.426;2023-02-11T11:59:27;99832.13;;;8.59;61.38
22104;BME280;11218;48.886;9.426;2023-02-11T12:02:10;99828.88;;;8.64;60.75
22104;BME280;11218;48.886;9.426;2023-02-11T12:04:59;99838.31;;;8.60;59.99
22104;BME280;11218;48.886;9.426;2023-02-11T12:07:41;99841.72;;;8.47;60.69
22104;BME280;11218;48.886;9.426;2023-02-11T12:10:35;99837.69;;;8.21;61.14
22104;BME280;11218;48.886;9.426;2023-02-11T12:13:15;99843.31;;;8.27;61.00
22104;BME280;11218;48.886;9.426;2023-02-11T12:15:54;99842.84;;;8.16;62.31
22104;BME280;11218;48.886;9.426;2023-02-11T12:18:54;99846.47;;;8.09;63.22
22104;BME280;11218;48.886;9.426;2023-02-11T12:21:36;99851.47;;;7.97;64.06
22104;BME280;11218;48.886;9.426;2023-02-11T12:24:21;99843.25;;;7.99;64.17
22104;BME280;11218;48.886;9.426;2023-02-11T12:26:58;99837.44;;;7.95;64.92
22104;BME280;11218;48.886;9.426;2023-02-11T12:29:36;99839.34;;;8.01;64.28
22104;BME280;11218;48.886;9.426;2023-02-11T12:32:20;99844.72;;;8.01;64.20
22104;BME280;11218;48.886;9.426;2023-02-11T12:35:10;99840.56;;;7.99;65.13
22104;BME280;11218;48.886;9.426;2023-02-11T12:37:51;99841.00;;;8.02;65.23
22104;BME280;11218;48.886;9.426;2023-02-11T12:40:32;99838.97;;;8.04;64.71
22104;BME280;11218;48.886;9.426;2023-02-11T12:43:14;99843.50;;;8.04;63.93
22104;BME280;11218;48.886;9.426;2023-02-11T12:45:57;99835.28;;;8.05;64.04
22104;BME280;11218;48.886;9.426;2023-02-11T12:48:38;99837.97;;;8.05;64.55
22104;BME280;11218;48.886;9.426;2023-02-11T12:51:16;99835.72;;;8.09;64.48
22104;BME280;11218;48.886;9.426;2023-02-11T12:56:50;99823.44;;;8.00;65.47
22104;BME280;11218;48.886;9.426;2023-02-11T12:59:28;99821.94;;;8.12;64.43
22104;BME280;11218;48.886;9.426;2023-02-11T13:02:03;99812.28;;;8.17;64.03
22104;BME280;11218;48.886;9.426;2023-02-11T13:04:38;99816.00;;;8.16;64.08
22104;BME280;11218;48.886;9.426;2023-02-11T13:07:13;99810.41;;;8.18;63.79
22104;BME280;11218;48.886;9.426;2023-02-11T13:09:44;99809.59;;;8.17;63.80
22104;BME280;11218;48.886;9.426;2023-02-11T13:12:18;99805.69;;;8.20;63.85
22104;BME280;11218;48.886;9.426;2023-02-11T13:15:08;99798.81;;;8.32;63.45
22104;BME280;11218;48.886;9.426;2023-02-11T13:17:42;99794.81;;;8.43;63.09
22104;BME280;11218;48.886;9.426;2023-02-11T13:20:22;99792.84;;;8.51;63.51
22104;BME280;11218;48.886;9.426;2023-02-11T13:22:57;99800.19;;;8.64;62.92
22104;BME280;11218;48.886;9.426;2023-02-11T13:25:33;99794.22;;;8.69;62.63
22104;BME280;11218;48.886;9.426;2023-02-11T13:28:17;99789.88;;;8.68;62.21
22104;BME280;11218;48.886;9.426;2023-02-11T13:30:47;99790.97;;;8.73;62.00
22104;BME280;11218;48.886;9.426;2023-02-11T13:33:31;99794.78;;;8.85;62.04
22104;BME280;11218;48.886;9.426;2023-02-11T13:36:12;99788.41;;;8.93;62.15
22104;BME280;11218;48.886;9.426;2023-02-11T13:38:54;99784.59;;;9.09;61.91